Time;durP1;ratioP1;P1;durP2;ratioP2;P2;SDS_P1;SDS_P2;PMS_P1;PMS_P2;Temp;Humidity;BMP_temperature;BMP_pressure;BME280_temperature;BME280_humidity;BME280_pressure;Samples;Min_cycle;Max_cycle;Signal;HPM_P1;HPM_P2
2023/07/01 00:01:22;;;;;;;4.80;4.30;;;18.40;99.90;;;;;;5056102;28;20197;-74
2023/07/01 00:03:48;;;;;;;5.73;5.23;;;18.40;99.90;;;;;;5058290;28;20194;-72
2023/07/01 00:06:14;;;;;;;5.93;5.10;;;18.40;99.90;;;;;;5058355;28;20293;-71
2023/07/01 00:08:40;;;;;;;5.57;5.07;;;18.30;99.90;;;;;;5057503;28;20202;-73
2023/07/01 00:11:06;;;;;;;5.00;4.60;;;18.30;99.90;;;;;;5057983;28;20411;-76
2023/07/01 00:13:32;;;;;;;6.43;4.87;;;18.30;99.90;;;;;;5047364;28;20964;-76
2023/07/01 00:15:58;;;;;;;7.40;5.53;;;18.30;99.90;;;;;;5046596;28;20694;-70
2023/07/01 00:18:23;;;;;;;5.47;5.07;;;18.30;99.90;;;;;;5046980;28;20287;-70
2023/07/01 00:20:49;;;;;;;9.73;4.80;;;18.30;99.90;;;;;;5049945;28;20210;-70
2023/07/01 00:23:15;;;;;;;11.80;5.37;;;18.30;99.90;;;;;;5057861;28;20203;-72
2023/07/01 00:25:40;;;;;;;6.17;5.10;;;18.40;99.90;;;;;;5057960;28;20198;-70
2023/07/01 00:28:06;;;;;;;5.60;5.10;;;18.40;99.90;;;;;;5055845;28;20252;-70
2023/07/01 00:30:31;;;;;;;5.40;4.93;;;18.50;99.90;;;;;;5057827;28;20207;-61
2023/07/01 00:32:57;;;;;;;6.17;5.57;;;18.50;99.90;;;;;;5057538;28;20764;-70
2023/07/01 00:35:22;;;;;;;5.77;5.27;;;18.50;99.90;;;;;;5054246;28;20500;-64
2023/07/01 00:37:48;;;;;;;6.30;5.00;;;18.50;99.90;;;;;;5050523;28;20437;-62
2023/07/01 00:40:14;;;;;;;7.10;5.47;;;18.40;99.90;;;;;;5044836;28;20223;-62
2023/07/01 00:42:39;;;;;;;5.23;4.83;;;18.40;99.90;;;;;;5046272;28;20252;-62
2023/07/01 00:45:05;;;;;;;5.73;5.00;;;18.40;99.90;;;;;;5049255;28;20202;-62
2023/07/01 00:47:31;;;;;;;5.20;4.80;;;18.50;99.90;;;;;;5057474;28;20882;-61
2023/07/01 00:49:57;;;;;;;6.00;5.50;;;18.50;99.90;;;;;;5057665;28;20208;-60
2023/07/01 00:52:23;;;;;;;5.80;5.30;;;18.50;99.90;;;;;;5056492;28;20201;-62
2023/07/01 00:54:48;;;;;;;5.43;4.93;;;18.30;99.90;;;;;;5059908;28;20276;-61
2023/07/01 00:57:14;;;;;;;5.97;5.47;;;18.30;99.90;;;;;;5053452;28;20592;-61
2023/07/01 00:59:40;;;;;;;5.97;5.47;;;18.30;99.90;;;;;;5057135;28;20729;-61
2023/07/01 01:02:44;;;;;;;5.90;5.30;;;18.40;99.90;;;;;;5056697;28;20205;-61
2023/07/01 01:05:15;;;;;;;6.27;5.67;;;18.30;99.90;;;;;;5046615;28;20262;-61
2023/07/01 01:07:50;;;;;;;5.70;5.13;;;18.30;99.90;;;;;;5056857;28;20206;-61
2023/07/01 01:10:22;;;;;;;5.80;5.30;;;18.30;99.90;;;;;;5056700;28;20198;-60
2023/07/01 01:12:50;;;;;;;5.67;5.20;;;18.40;99.90;;;;;;5056010;28;20222;-60
2023/07/01 01:15:16;;;;;;;5.97;5.47;;;18.40;99.90;;;;;;5056855;28;20746;-61
2023/07/01 01:17:43;;;;;;;5.33;4.97;;;18.40;99.90;;;;;;5056632;28;20955;-60
2023/07/01 01:20:16;;;;;;;9.70;5.27;;;18.40;99.90;;;;;;5056421;28;20217;-61
2023/07/01 01:23:07;;;;;;;7.13;6.43;;;18.40;99.90;;;;;;5056666;28;20209;-61
2023/07/01 01:25:56;;;;;;;6.50;5.97;;;18.40;99.90;;;;;;5045020;28;20210;-61
2023/07/01 01:28:21;;;;;;;6.20;5.57;;;18.30;99.90;;;;;;5057424;28;20230;-61
2023/07/01 01:30:47;;;;;;;8.40;5.83;;;18.30;99.90;;;;;;5058254;28;20229;-60
2023/07/01 01:33:13;;;;;;;6.63;5.80;;;18.30;99.90;;;;;;5056387;28;20218;-61
2023/07/01 01:35:38;;;;;;;5.80;5.20;;;18.40;99.90;;;;;;5060609;28;20206;-60
2023/07/01 01:38:07;;;;;;;5.67;5.17;;;18.40;99.90;;;;;;5060585;28;20258;-61
2023/07/01 01:40:43;;;;;;;8.17;5.77;;;18.40;99.90;;;;;;5061636;28;20248;-61
2023/07/01 01:43:34;;;;;;;5.90;5.40;;;18.40;99.90;;;;;;5052033;28;20668;-60
2023/07/01 01:46:01;;;;;;;6.50;5.87;;;18.30;99.90;;;;;;5060068;28;20695;-61
2023/07/01 01:48:27;;;;;;;5.97;5.47;;;18.30;99.90;;;;;;5059242;28;20198;-60
2023/07/01 01:50:54;;;;;;;5.97;5.43;;;18.20;99.90;;;;;;5056442;28;20210;-61
2023/07/01 01:53:24;;;;;;;6.07;5.50;;;18.20;99.90;;;;;;5058385;28;20214;-62
2023/07/01 01:55:50;;;;;;;6.33;5.83;;;18.30;99.90;;;;;;5060960;28;20202;-66
2023/07/01 01:58:16;;;;;;;6.03;5.53;;;18.30;99.90;;;;;;5060646;28;20198;-61
2023/07/01 02:00:41;;;;;;;5.33;5.03;;;18.30;99.90;;;;;;5060695;28;20251;-62
2023/07/01 02:03:07;;;;;;;7.27;5.80;;;18.30;99.90;;;;;;5060285;28;20199;-61
2023/07/01 02:05:33;;;;;;;6.47;5.77;;;18.30;99.90;;;;;;5059731;28;20251;-61
2023/07/01 02:08:02;;;;;;;5.80;5.40;;;18.30;99.90;;;;;;5060295;28;20202;-61
2023/07/01 02:10:28;;;;;;;6.13;5.67;;;18.20;99.90;;;;;;5060524;28;20285;-62
2023/07/01 02:12:53;;;;;;;6.83;6.23;;;18.20;99.90;;;;;;5061995;28;20260;-63
2023/07/01 02:15:19;;;;;;;6.30;5.70;;;18.20;99.90;;;;;;5060017;28;20747;-62
2023/07/01 02:17:44;;;;;;;5.93;5.50;;;18.30;99.90;;;;;;5057935;28;20218;-62
2023/07/01 02:20:11;;;;;;;6.27;5.77;;;18.30;99.90;;;;;;5059950;28;20199;-61
2023/07/01 02:22:37;;;;;;;7.47;6.23;;;18.20;99.90;;;;;;5059345;28;20202;-62
2023/07/01 02:25:03;;;;;;;6.00;5.50;;;18.30;99.90;;;;;;5059724;28;20261;-62
2023/07/01 02:27:30;;;;;;;6.73;6.20;;;18.30;99.90;;;;;;5060021;28;20194;-62
2023/07/01 02:29:57;;;;;;;6.83;6.23;;;18.30;99.90;;;;;;5059835;28;20202;-62
2023/07/01 02:32:22;;;;;;;6.50;6.00;;;18.20;99.90;;;;;;5053236;28;20202;-62
2023/07/01 02:34:48;;;;;;;7.00;6.30;;;18.20;99.90;;;;;;5051095;28;20202;-62
2023/07/01 02:37:13;;;;;;;6.43;5.83;;;18.30;99.90;;;;;;5051027;28;20614;-62
2023/07/01 02:39:39;;;;;;;7.90;7.10;;;18.30;99.90;;;;;;5047965;28;20226;-62
2023/07/01 02:42:05;;;;;;;7.10;6.20;;;18.30;99.90;;;;;;5047483;28;20248;-62
2023/07/01 02:44:31;;;;;;;6.33;5.77;;;18.30;99.90;;;;;;5049174;28;20210;-62
2023/07/01 02:46:56;;;;;;;7.17;6.20;;;18.10;99.90;;;;;;5049183;28;20557;-62
2023/07/01 02:49:22;;;;;;;7.17;6.50;;;18.20;99.90;;;;;;5049068;28;20203;-61
2023/07/01 02:51:47;;;;;;;8.20;6.63;;;18.20;99.90;;;;;;5049941;28;20290;-61
2023/07/01 02:54:13;;;;;;;7.70;6.43;;;18.20;99.90;;;;;;5047361;28;20219;-61
2023/07/01 02:56:38;;;;;;;7.20;6.60;;;18.10;99.90;;;;;;5045168;28;20218;-61
2023/07/01 02:59:04;;;;;;;6.73;6.23;;;18.10;99.90;;;;;;5050421;28;20203;-61
2023/07/01 03:01:30;;;;;;;8.83;7.23;;;18.10;99.90;;;;;;5050314;28;20202;-62
2023/07/01 03:03:56;;;;;;;7.00;6.50;;;18.10;99.90;;;;;;5049137;28;20199;-62
2023/07/01 03:06:22;;;;;;;7.10;6.43;;;18.00;99.90;;;;;;5049517;28;20300;-62
2023/07/01 03:08:48;;;;;;;8.87;6.73;;;18.00;99.90;;;;;;5047321;28;20211;-61
2023/07/01 03:11:13;;;;;;;9.20;7.23;;;18.00;99.90;;;;;;5048712;28;20289;-61
2023/07/01 03:13:39;;;;;;;7.40;6.70;;;18.00;99.90;;;;;;5048688;28;20272;-61
2023/07/01 03:16:06;;;;;;;9.00;7.20;;;18.00;99.90;;;;;;5048537;28;20891;-61
2023/07/01 03:18:32;;;;;;;7.63;7.13;;;18.00;99.90;;;;;;5049325;28;20200;-61
2023/07/01 03:21:00;;;;;;;7.50;6.80;;;18.00;99.90;;;;;;5047587;28;20211;-62
2023/07/01 03:23:30;;;;;;;6.80;6.10;;;18.10;99.90;;;;;;5046072;28;20234;-62
2023/07/01 03:25:56;;;;;;;8.37;7.53;;;18.00;99.90;;;;;;5049255;28;20560;-61
2023/07/01 03:28:21;;;;;;;7.73;7.13;;;18.00;99.90;;;;;;5049344;28;20202;-62
2023/07/01 03:30:47;;;;;;;7.23;6.63;;;18.00;99.90;;;;;;5046991;28;20213;-61
2023/07/01 03:33:12;;;;;;;7.80;7.13;;;17.90;99.90;;;;;;5047924;28;20218;-61
2023/07/01 03:35:38;;;;;;;8.20;7.53;;;17.90;99.90;;;;;;5048001;28;20634;-62
2023/07/01 03:38:04;;;;;;;7.70;7.00;;;18.00;99.90;;;;;;5048197;28;20300;-62
2023/07/01 03:40:30;;;;;;;8.13;7.33;;;17.90;99.90;;;;;;5048203;28;20309;-61
2023/07/01 03:42:56;;;;;;;7.90;7.20;;;17.90;99.90;;;;;;5048561;28;20277;-61
2023/07/01 03:45:22;;;;;;;8.63;7.73;;;17.90;99.90;;;;;;5046563;28;20552;-62
2023/07/01 03:47:47;;;;;;;11.33;7.63;;;17.80;99.90;;;;;;5049037;28;20244;-62
2023/07/01 03:50:14;;;;;;;8.77;7.70;;;17.80;99.90;;;;;;5049052;28;20301;-61
2023/07/01 03:52:41;;;;;;;10.03;8.23;;;17.70;99.90;;;;;;5048726;28;20680;-61
2023/07/01 03:55:08;;;;;;;8.53;7.73;;;17.70;99.90;;;;;;5049555;28;20312;-61
2023/07/01 03:57:35;;;;;;;8.33;7.73;;;17.70;99.90;;;;;;5047811;28;20194;-62
2023/07/01 04:00:01;;;;;;;8.13;7.43;;;17.70;99.90;;;;;;5047499;28;20198;-62
2023/07/01 04:02:26;;;;;;;8.10;7.40;;;17.70;99.90;;;;;;5050473;28;20544;-62
2023/07/01 04:04:53;;;;;;;8.97;7.90;;;17.70;99.90;;;;;;5045857;28;20194;-61
2023/07/01 04:07:21;;;;;;;10.40;8.23;;;17.70;99.90;;;;;;5047270;28;20205;-61
2023/07/01 04:09:49;;;;;;;9.40;8.50;;;17.70;99.90;;;;;;5046324;28;20203;-61
2023/07/01 04:12:15;;;;;;;8.83;7.93;;;17.70;99.90;;;;;;5048197;28;20215;-61
2023/07/01 04:14:41;;;;;;;8.83;7.97;;;17.70;99.90;;;;;;5057520;28;20206;-61
2023/07/01 04:17:07;;;;;;;9.17;8.37;;;17.70;99.90;;;;;;5057853;28;20267;-65
2023/07/01 04:19:32;;;;;;;8.33;7.53;;;17.70;99.90;;;;;;5058149;28;20297;-63
2023/07/01 04:21:58;;;;;;;8.80;7.90;;;17.60;99.90;;;;;;5055927;28;20198;-61
2023/07/01 04:24:23;;;;;;;8.33;7.57;;;17.70;99.90;;;;;;5057993;28;20611;-61
2023/07/01 04:26:49;;;;;;;8.67;7.90;;;17.80;99.90;;;;;;5057707;28;20666;-69
2023/07/01 04:29:14;;;;;;;7.90;7.20;;;17.90;99.90;;;;;;5056522;28;20208;-63
2023/07/01 04:31:39;;;;;;;8.57;7.80;;;17.80;99.90;;;;;;5055151;28;20535;-61
2023/07/01 04:34:05;;;;;;;8.50;7.70;;;17.80;99.90;;;;;;5057325;28;20754;-61
2023/07/01 04:36:30;;;;;;;7.60;6.90;;;17.80;99.90;;;;;;5055772;28;20603;-61
2023/07/01 04:38:56;;;;;;;7.40;6.60;;;17.90;99.90;;;;;;5057772;28;20221;-61
2023/07/01 04:41:21;;;;;;;8.77;6.97;;;17.90;99.90;;;;;;5057680;28;20198;-62
2023/07/01 04:43:47;;;;;;;8.50;7.80;;;17.90;99.90;;;;;;5057605;28;20583;-61
2023/07/01 04:46:12;;;;;;;8.83;6.73;;;17.90;99.90;;;;;;5057531;28;20198;-62
2023/07/01 04:48:38;;;;;;;7.47;6.80;;;17.80;99.90;;;;;;5055967;28;20205;-61
2023/07/01 04:51:04;;;;;;;7.73;7.03;;;17.90;99.90;;;;;;5057680;28;20190;-62
2023/07/01 04:53:29;;;;;;;8.53;7.00;;;18.00;99.90;;;;;;5056373;28;20332;-61
2023/07/01 04:55:55;;;;;;;7.80;7.20;;;18.00;99.90;;;;;;5056787;28;20186;-62
2023/07/01 04:58:20;;;;;;;7.37;6.73;;;17.80;99.90;;;;;;5057393;28;20190;-75
2023/07/01 05:00:46;;;;;;;7.57;6.40;;;17.70;99.90;;;;;;5055526;28;20251;-61
2023/07/01 05:03:11;;;;;;;8.80;7.10;;;17.70;99.90;;;;;;5057165;28;20204;-60
2023/07/01 05:05:37;;;;;;;7.47;6.77;;;17.70;99.90;;;;;;5057651;28;20261;-60
2023/07/01 05:08:02;;;;;;;6.77;6.13;;;17.80;99.90;;;;;;5057353;28;20292;-60
2023/07/01 05:10:28;;;;;;;7.63;6.77;;;17.80;99.90;;;;;;5057261;28;20209;-60
2023/07/01 05:12:54;;;;;;;7.27;6.57;;;17.80;99.90;;;;;;5055889;28;20230;-66
2023/07/01 05:15:19;;;;;;;7.00;6.40;;;17.70;99.90;;;;;;5049905;28;20223;-62
2023/07/01 05:17:44;;;;;;;7.73;6.43;;;17.80;99.90;;;;;;5053968;28;20206;-60
2023/07/01 05:20:11;;;;;;;10.47;6.80;;;17.70;99.90;;;;;;5058130;28;20217;-61
2023/07/01 05:22:37;;;;;;;9.70;6.07;;;17.80;99.90;;;;;;5057121;28;20238;-61
2023/07/01 05:25:03;;;;;;;6.00;5.60;;;17.90;99.90;;;;;;5056871;28;20222;-61
2023/07/01 05:27:29;;;;;;;6.60;6.10;;;18.00;99.90;;;;;;5059705;28;20732;-61
2023/07/01 05:29:56;;;;;;;6.43;5.93;;;18.00;99.90;;;;;;5053403;28;20284;-61
2023/07/01 05:32:22;;;;;;;6.07;5.57;;;17.90;99.90;;;;;;5056908;28;20618;-61
2023/07/01 05:34:47;;;;;;;5.37;4.97;;;17.90;99.90;;;;;;5057119;28;20206;-60
2023/07/01 05:37:13;;;;;;;6.93;5.50;;;18.00;99.90;;;;;;5057710;28;20234;-60
2023/07/01 05:39:38;;;;;;;5.73;5.23;;;18.10;99.90;;;;;;5054777;28;20790;-62
2023/07/01 05:42:04;;;;;;;5.80;5.23;;;18.10;99.90;;;;;;5055585;28;20654;-61
2023/07/01 05:44:30;;;;;;;6.83;5.80;;;18.20;99.90;;;;;;5056935;28;20218;-61
2023/07/01 05:46:56;;;;;;;6.20;5.13;;;18.20;99.90;;;;;;5057075;28;20205;-61
2023/07/01 05:49:21;;;;;;;5.00;4.60;;;18.20;99.90;;;;;;5056894;28;20298;-61
2023/07/01 05:51:47;;;;;;;7.57;5.33;;;18.20;99.90;;;;;;5061050;28;20202;-61
2023/07/01 05:54:12;;;;;;;8.37;5.03;;;18.30;99.90;;;;;;5050553;28;20217;-62
2023/07/01 05:56:38;;;;;;;5.43;4.47;;;18.40;99.90;;;;;;5056472;28;20192;-61
2023/07/01 05:59:03;;;;;;;5.30;4.90;;;18.40;99.90;;;;;;5056410;28;20256;-62
2023/07/01 06:01:29;;;;;;;5.27;4.77;;;18.40;99.90;;;;;;5056678;28;20194;-62
2023/07/01 06:03:55;;;;;;;5.37;4.87;;;18.40;99.90;;;;;;5057131;28;20208;-62
2023/07/01 06:06:21;;;;;;;6.93;4.67;;;18.60;99.90;;;;;;5054700;28;20555;-63
2023/07/01 06:08:47;;;;;;;6.07;4.87;;;18.60;99.90;;;;;;5056672;28;20237;-62
2023/07/01 06:11:14;;;;;;;5.07;4.67;;;18.80;99.90;;;;;;5055376;28;20255;-62
2023/07/01 06:13:47;;;;;;;5.23;4.50;;;18.80;99.90;;;;;;5055328;28;20232;-62
2023/07/01 06:16:16;;;;;;;5.63;4.43;;;18.90;99.90;;;;;;5057836;28;20889;-63
2023/07/01 06:18:42;;;;;;;5.13;4.70;;;18.90;99.90;;;;;;5047539;28;20254;-62
2023/07/01 06:21:08;;;;;;;5.33;3.90;;;18.90;99.90;;;;;;5048636;28;20209;-63
2023/07/01 06:23:37;;;;;;;5.20;4.17;;;18.90;99.90;;;;;;5051961;28;20201;-62
2023/07/01 06:26:03;;;;;;;4.73;4.33;;;19.00;99.90;;;;;;5049480;28;20290;-62
2023/07/01 06:28:29;;;;;;;3.73;3.53;;;19.00;99.90;;;;;;5051671;28;20211;-62
2023/07/01 06:30:54;;;;;;;5.40;4.03;;;19.10;99.90;;;;;;5050451;28;20208;-62
2023/07/01 06:33:20;;;;;;;5.60;3.97;;;19.10;99.90;;;;;;5050822;28;20616;-62
2023/07/01 06:35:45;;;;;;;5.33;3.90;;;19.00;99.90;;;;;;5060427;28;20208;-63
2023/07/01 06:38:12;;;;;;;5.03;4.13;;;19.00;99.90;;;;;;5065946;28;20255;-63
2023/07/01 06:40:37;;;;;;;4.57;3.80;;;19.20;99.90;;;;;;5057265;28;20219;-64
2023/07/01 06:43:03;;;;;;;8.80;3.73;;;19.30;99.90;;;;;;5050028;28;20201;-69
2023/07/01 06:45:30;;;;;;;6.73;3.80;;;19.30;99.90;;;;;;5052622;28;20777;-70
2023/07/01 06:47:56;;;;;;;4.13;3.73;;;19.50;99.90;;;;;;5057298;28;20214;-70
2023/07/01 06:50:21;;;;;;;7.27;4.03;;;19.50;99.90;;;;;;5052209;28;20283;-79
2023/07/01 06:52:47;;;;;;;4.60;3.40;;;19.50;99.90;;;;;;5061318;28;20219;-79
2023/07/01 06:55:15;;;;;;;4.30;3.57;;;19.60;99.90;;;;;;5062045;28;20677;-73
2023/07/01 06:57:42;;;;;;;4.20;3.80;;;19.70;99.90;;;;;;5064040;28;20200;-70
2023/07/01 07:00:10;;;;;;;4.33;3.83;;;19.80;99.90;;;;;;5068617;28;20204;-79
2023/07/01 07:02:36;;;;;;;5.83;4.13;;;19.80;99.90;;;;;;5063285;28;20198;-69
2023/07/01 07:05:03;;;;;;;4.20;3.43;;;19.90;99.90;;;;;;5059968;28;20916;-70
2023/07/01 07:07:29;;;;;;;4.50;4.03;;;19.90;99.90;;;;;;5059880;28;20679;-71
2023/07/01 07:09:54;;;;;;;5.50;3.80;;;19.90;99.90;;;;;;5061315;28;20207;-74
2023/07/01 07:12:20;;;;;;;3.37;3.13;;;20.00;99.90;;;;;;5059274;28;20257;-70
2023/07/01 07:14:45;;;;;;;4.40;3.20;;;20.10;99.90;;;;;;5056806;28;20195;-70
2023/07/01 07:17:11;;;;;;;4.67;3.33;;;20.00;99.90;;;;;;5063659;28;20200;-71
2023/07/01 07:19:37;;;;;;;3.10;2.60;;;20.00;99.90;;;;;;5058872;28;20211;-71
2023/07/01 07:22:04;;;;;;;3.67;2.77;;;20.10;99.90;;;;;;5057595;28;23030;-71
2023/07/01 07:24:29;;;;;;;3.83;2.77;;;20.20;99.90;;;;;;5057979;28;20204;-70
2023/07/01 07:26:57;;;;;;;5.90;2.63;;;20.20;99.90;;;;;;5056516;28;20201;-72
2023/07/01 07:29:24;;;;;;;2.60;2.17;;;20.20;99.90;;;;;;5056386;28;20208;-72
2023/07/01 07:31:50;;;;;;;4.23;2.77;;;20.30;99.90;;;;;;5057331;28;20280;-71
2023/07/01 07:34:15;;;;;;;3.03;2.70;;;20.30;99.90;;;;;;5057680;28;20703;-71
2023/07/01 07:36:41;;;;;;;4.30;2.33;;;20.40;99.90;;;;;;5048779;28;20204;-70
2023/07/01 07:39:06;;;;;;;5.13;2.33;;;20.40;99.90;;;;;;5046926;28;20224;-71
2023/07/01 07:41:32;;;;;;;3.03;2.60;;;20.40;99.90;;;;;;5048221;28;20199;-71
2023/07/01 07:43:57;;;;;;;2.40;2.20;;;20.50;99.90;;;;;;5049475;28;20288;-70
2023/07/01 07:46:23;;;;;;;2.93;1.87;;;20.60;99.90;;;;;;5046516;28;20580;-70
2023/07/01 07:48:49;;;;;;;4.37;2.60;;;20.60;97.30;;;;;;5051782;28;20223;-71
2023/07/01 07:51:15;;;;;;;2.90;2.10;;;20.60;97.40;;;;;;5058496;28;20471;-71
2023/07/01 07:53:40;;;;;;;2.17;1.87;;;20.50;97.60;;;;;;5056737;28;20209;-71
2023/07/01 07:56:06;;;;;;;2.10;1.90;;;20.50;96.00;;;;;;5058462;28;20200;-71
2023/07/01 07:58:31;;;;;;;2.17;1.87;;;20.60;95.30;;;;;;5058419;28;20288;-70
2023/07/01 08:00:57;;;;;;;2.73;1.90;;;20.70;94.90;;;;;;5058698;28;20211;-71
2023/07/01 08:03:22;;;;;;;2.57;1.87;;;20.80;95.30;;;;;;5057317;28;20199;-70
2023/07/01 08:05:51;;;;;;;2.47;1.97;;;20.90;94.50;;;;;;5049221;28;20200;-71
2023/07/01 08:08:16;;;;;;;4.17;1.60;;;20.90;95.10;;;;;;5049775;28;20206;-71
2023/07/01 08:10:45;;;;;;;1.90;1.50;;;20.90;94.40;;;;;;5057102;28;20202;-71
2023/07/01 08:13:14;;;;;;;2.43;1.60;;;21.00;94.20;;;;;;5062137;28;20216;-70
2023/07/01 08:15:41;;;;;;;3.07;1.80;;;21.00;93.60;;;;;;5051317;28;20208;-70
2023/07/01 08:18:07;;;;;;;3.53;2.73;;;21.00;93.40;;;;;;5058083;28;20246;-72
2023/07/01 08:20:33;;;;;;;1.70;1.60;;;21.20;93.30;;;;;;5057867;28;20197;-71
2023/07/01 08:22:58;;;;;;;2.17;1.50;;;21.30;92.80;;;;;;5059938;28;20916;-71
2023/07/01 08:25:24;;;;;;;3.13;2.00;;;21.20;91.90;;;;;;5053360;28;20202;-72
2023/07/01 08:27:49;;;;;;;3.17;1.93;;;21.10;92.20;;;;;;5056232;28;20279;-71
2023/07/01 08:30:15;;;;;;;3.67;1.87;;;21.10;91.00;;;;;;5057932;28;20291;-71
2023/07/01 08:32:41;;;;;;;3.63;1.90;;;21.20;90.60;;;;;;5058200;28;20214;-70
2023/07/01 08:35:07;;;;;;;1.40;1.30;;;21.40;90.80;;;;;;5057449;28;20205;-70
2023/07/01 08:37:33;;;;;;;2.83;2.00;;;21.40;91.20;;;;;;5054795;28;20229;-71
2023/07/01 08:39:59;;;;;;;3.80;2.20;;;21.40;91.90;;;;;;5057437;28;21013;-72
2023/07/01 08:42:35;;;;;;;2.10;1.90;;;21.30;91.80;;;;;;5055508;28;20202;-71
2023/07/01 08:45:02;;;;;;;2.17;2.07;;;21.20;91.60;;;;;;5057820;28;20210;-73
2023/07/01 08:47:29;;;;;;;2.47;1.87;;;21.20;90.70;;;;;;5057680;28;20209;-71
2023/07/01 08:49:58;;;;;;;2.47;2.27;;;21.30;91.60;;;;;;5055972;28;20198;-71
2023/07/01 08:52:28;;;;;;;1.83;1.67;;;21.20;91.40;;;;;;5055184;28;20201;-70
2023/07/01 08:54:53;;;;;;;6.13;1.70;;;21.20;91.80;;;;;;5057644;28;20205;-71
2023/07/01 08:57:19;;;;;;;2.53;1.60;;;21.30;93.10;;;;;;5057464;28;20781;-71
2023/07/01 09:06:57;;;;;;;3.63;2.30;;;21.70;93.00;;;;;;5060068;28;20200;-71
2023/07/01 09:09:23;;;;;;;3.07;2.40;;;22.00;92.00;;;;;;5057230;28;20333;-70
2023/07/01 09:11:48;;;;;;;2.97;2.67;;;22.00;90.70;;;;;;5056356;28;20822;-71
2023/07/01 09:14:14;;;;;;;4.07;2.40;;;21.90;89.70;;;;;;5057112;28;20224;-72
2023/07/01 09:16:39;;;;;;;2.33;2.00;;;21.90;90.10;;;;;;5057537;28;20294;-72
2023/07/01 09:19:17;;;;;;;2.40;2.10;;;21.90;90.20;;;;;;5057050;28;20201;-71
2023/07/01 09:21:43;;;;;;;3.87;1.70;;;22.00;90.90;;;;;;5056620;28;20200;-71
2023/07/01 09:24:10;;;;;;;3.70;2.23;;;22.20;90.60;;;;;;5055187;28;20672;-70
2023/07/01 09:26:36;;;;;;;6.07;2.30;;;22.20;90.00;;;;;;5056778;28;20837;-71
2023/07/01 09:29:15;;;;;;;2.40;2.20;;;22.20;90.50;;;;;;5056796;28;20563;-69
2023/07/01 09:31:45;;;;;;;2.97;2.33;;;22.20;89.60;;;;;;5053537;28;20213;-69
2023/07/01 09:34:11;;;;;;;6.03;2.10;;;22.30;89.50;;;;;;5057083;28;20221;-70
2023/07/01 09:36:37;;;;;;;2.10;1.90;;;22.40;90.20;;;;;;5058963;28;20259;-69
2023/07/01 09:39:04;;;;;;;2.40;2.13;;;22.40;89.20;;;;;;5054580;28;20320;-69
2023/07/01 09:41:30;;;;;;;3.77;2.10;;;22.40;90.20;;;;;;5055979;28;20506;-70
2023/07/01 09:43:58;;;;;;;1.93;1.83;;;22.50;90.20;;;;;;5055027;28;20199;-71
2023/07/01 09:46:26;;;;;;;2.10;2.00;;;22.50;88.70;;;;;;5056810;28;20210;-70
2023/07/01 09:48:55;;;;;;;5.83;2.27;;;22.60;89.90;;;;;;5056970;28;20201;-72
2023/07/01 09:51:22;;;;;;;4.50;2.03;;;22.70;88.10;;;;;;5060772;28;20561;-70
2023/07/01 09:53:48;;;;;;;3.13;2.20;;;22.70;87.40;;;;;;5060815;28;21016;-70
2023/07/01 09:56:16;;;;;;;5.10;2.47;;;22.70;86.20;;;;;;5059580;28;20202;-70
2023/07/01 09:58:42;;;;;;;2.37;2.17;;;22.70;87.10;;;;;;5049502;28;20198;-71
2023/07/01 10:01:08;;;;;;;1.87;1.47;;;22.70;86.70;;;;;;5043922;28;20735;-70
2023/07/01 10:03:33;;;;;;;4.60;2.33;;;22.70;87.70;;;;;;5050409;28;20202;-71
2023/07/01 10:05:59;;;;;;;2.53;2.27;;;22.90;86.60;;;;;;5048940;28;20213;-71
2023/07/01 10:08:25;;;;;;;1.60;1.43;;;22.90;86.70;;;;;;5050917;28;20203;-70
2023/07/01 10:11:04;;;;;;;3.17;1.87;;;22.70;86.30;;;;;;5050758;28;20799;-71
2023/07/01 10:13:34;;;;;;;2.47;2.27;;;22.70;88.50;;;;;;5050878;28;20212;-71
2023/07/01 10:16:02;;;;;;;2.47;2.03;;;22.80;90.60;;;;;;5049987;28;20198;-71
2023/07/01 10:18:30;;;;;;;3.17;2.13;;;23.00;87.20;;;;;;5050614;28;20595;-70
2023/07/01 10:21:24;;;;;;;1.80;1.70;;;23.10;85.70;;;;;;5049982;28;20414;-70
2023/07/01 10:23:55;;;;;;;4.80;2.10;;;22.90;86.00;;;;;;5049595;28;20914;-70
2023/07/01 10:26:39;;;;;;;3.70;2.27;;;23.00;85.60;;;;;;5047919;28;20216;-70
2023/07/01 10:29:34;;;;;;;10.10;2.43;;;23.10;87.00;;;;;;5051093;28;20206;-70
2023/07/01 10:32:08;;;;;;;2.43;2.13;;;23.30;84.80;;;;;;5051608;28;20233;-70
2023/07/01 10:34:52;;;;;;;3.67;2.63;;;23.20;85.20;;;;;;5048612;28;20220;-70
2023/07/01 10:37:22;;;;;;;4.70;2.10;;;23.30;86.30;;;;;;5049436;28;20703;-71
2023/07/01 10:39:48;;;;;;;3.20;2.33;;;23.30;86.10;;;;;;5046039;28;20279;-71
2023/07/01 10:42:36;;;;;;;2.47;2.27;;;23.20;86.90;;;;;;5050012;28;20206;-70
2023/07/01 10:45:11;;;;;;;2.20;1.97;;;23.40;85.70;;;;;;5049229;28;20212;-71
2023/07/01 10:47:49;;;;;;;4.80;2.30;;;23.40;84.50;;;;;;5049904;28;20672;-70
2023/07/01 10:50:16;;;;;;;3.13;2.27;;;23.50;86.60;;;;;;5046576;28;20578;-71
2023/07/01 10:52:57;;;;;;;3.20;2.60;;;23.70;85.10;;;;;;5050356;28;20201;-70
2023/07/01 10:55:46;;;;;;;2.67;2.28;;;23.90;84.00;;;;;;5048854;28;20203;-71
2023/07/01 10:58:26;;;;;;;5.47;2.67;;;24.00;83.40;;;;;;5047856;28;20253;-70
2023/07/01 11:00:58;;;;;;;2.40;2.20;;;24.00;83.80;;;;;;5048604;28;20204;-71
2023/07/01 11:03:33;;;;;;;3.77;2.47;;;23.90;89.00;;;;;;5048892;28;20206;-70
2023/07/01 11:06:00;;;;;;;3.90;2.30;;;24.00;85.20;;;;;;5049213;28;20213;-70
2023/07/01 11:08:29;;;;;;;10.07;2.80;;;23.90;87.80;;;;;;5048227;28;20199;-71
2023/07/01 11:10:55;;;;;;;3.05;2.35;;;24.20;86.30;;;;;;5051804;28;20202;-70
2023/07/01 11:13:21;;;;;;;3.33;2.70;;;24.40;85.30;;;;;;5043543;28;20237;-71
2023/07/01 11:16:03;;;;;;;4.37;2.83;;;24.50;84.40;;;;;;5049837;28;20223;-70
2023/07/01 11:18:39;;;;;;;4.28;2.75;;;24.40;85.80;;;;;;5048620;28;20338;-70
2023/07/01 11:21:05;;;;;;;4.65;2.50;;;24.10;85.10;;;;;;5047951;28;20194;-71
2023/07/01 11:23:30;;;;;;;3.53;2.23;;;23.80;86.20;;;;;;5049043;28;20241;-70
2023/07/01 11:25:56;;;;;;;3.73;2.40;;;23.80;86.30;;;;;;5049025;28;20218;-71
2023/07/01 11:28:37;;;;;;;2.87;2.40;;;23.90;86.50;;;;;;5048857;28;20232;-71
2023/07/01 11:31:32;;;;;;;2.60;2.27;;;24.00;85.60;;;;;;5046322;28;20277;-69
2023/07/01 11:33:59;;;;;;;7.53;2.83;;;24.00;86.70;;;;;;5047481;28;20546;-70
2023/07/01 11:36:44;;;;;;;2.90;2.28;;;24.20;86.50;;;;;;5048364;28;20261;-69
2023/07/01 11:39:13;;;;;;;5.25;3.92;;;24.70;84.70;;;;;;5046356;28;20980;-70
2023/07/01 11:41:41;;;;;;;2.90;2.55;;;25.00;85.00;;;;;;5050436;28;20190;-70
2023/07/01 11:44:12;;;;;;;4.25;3.70;;;25.30;84.50;;;;;;5046887;28;20226;-70
2023/07/01 11:46:39;;;;;;;8.07;2.70;;;25.40;85.50;;;;;;5047184;28;20240;-70
2023/07/01 11:49:16;;;;;;;7.10;3.00;;;25.60;83.70;;;;;;5047786;28;20272;-71
2023/07/01 11:51:43;;;;;;;4.40;2.42;;;26.00;79.60;;;;;;5047088;28;20229;-70
2023/07/01 11:54:09;;;;;;;5.53;2.35;;;25.70;82.00;;;;;;5048860;28;20728;-71
2023/07/01 11:56:34;;;;;;;4.57;2.75;;;25.80;81.10;;;;;;5049020;28;20198;-70
2023/07/01 11:59:00;;;;;;;3.35;2.65;;;25.70;80.10;;;;;;5048976;28;20687;-71
2023/07/01 12:01:27;;;;;;;2.63;2.42;;;25.50;80.40;;;;;;5048912;28;20674;-70
2023/07/01 12:03:53;;;;;;;2.45;2.22;;;25.50;79.80;;;;;;5052005;28;20194;-70
2023/07/01 12:06:23;;;;;;;2.63;2.22;;;25.50;79.70;;;;;;5058503;28;20206;-71
2023/07/01 12:08:56;;;;;;;3.10;2.40;;;25.50;75.90;;;;;;5058903;28;20514;-70
2023/07/01 12:11:23;;;;;;;3.72;2.58;;;25.60;76.90;;;;;;5061048;28;20201;-70
2023/07/01 12:13:49;;;;;;;3.70;2.90;;;25.90;76.40;;;;;;5052360;28;20777;-71
2023/07/01 12:16:16;;;;;;;9.68;3.25;;;26.10;75.20;;;;;;5057490;28;21034;-70
2023/07/01 12:18:41;;;;;;;4.97;2.90;;;26.40;73.80;;;;;;5057814;28;20249;-70
2023/07/01 12:21:07;;;;;;;2.80;2.33;;;26.30;76.60;;;;;;5058057;28;20199;-70
2023/07/01 12:23:43;;;;;;;3.42;2.40;;;26.10;74.30;;;;;;5056470;28;20262;-71
2023/07/01 12:26:11;;;;;;;2.50;2.30;;;26.30;75.00;;;;;;5052619;28;20206;-71
2023/07/01 12:28:40;;;;;;;8.02;2.40;;;26.80;70.50;;;;;;5058081;28;20708;-71
2023/07/01 12:31:07;;;;;;;5.97;2.65;;;26.70;69.20;;;;;;5055745;28;20294;-71
2023/07/01 12:33:35;;;;;;;4.90;2.65;;;26.40;69.10;;;;;;5060879;28;20706;-72
2023/07/01 12:36:01;;;;;;;5.10;2.67;;;26.50;68.70;;;;;;5061749;28;20201;-70
2023/07/01 12:38:28;;;;;;;2.95;2.50;;;26.70;68.20;;;;;;5067388;28;20941;-68
2023/07/01 12:40:55;;;;;;;4.35;2.50;;;26.50;68.30;;;;;;5064463;28;20226;-71
2023/07/01 12:43:27;;;;;;;4.43;2.60;;;26.40;67.00;;;;;;5063687;28;20210;-71
2023/07/01 12:45:53;;;;;;;2.70;2.50;;;26.00;67.90;;;;;;5065289;28;20664;-72
2023/07/01 12:48:21;;;;;;;5.90;3.03;;;25.50;70.50;;;;;;5065185;28;20190;-72
2023/07/01 12:50:46;;;;;;;4.38;3.15;;;25.40;68.30;;;;;;5064996;28;20247;-73
2023/07/01 12:53:14;;;;;;;4.15;2.85;;;25.40;66.70;;;;;;5061794;28;20217;-69
2023/07/01 12:55:40;;;;;;;3.63;2.90;;;25.50;67.00;;;;;;5061787;28;20750;-73